Time;durP1;ratioP1;P1;durP2;ratioP2;P2;SDS_P1;SDS_P2;PMS_P1;PMS_P2;Temp;Humidity;BMP_temperature;BMP_pressure;BME280_temperature;BME280_humidity;BME280_pressure;Samples;Min_cycle;Max_cycle;Signal;HPM_P1;HPM_P2
2023/01/09 00:01:15;;;;;;;5.53;3.25;;;;;;;;;;4943176;29;20027;-83
2023/01/09 00:03:44;;;;;;;6.65;3.17;;;;;;;;;;4961298;29;20059;-85
2023/01/09 00:06:10;;;;;;;5.43;3.42;;;;;;;;;;4943329;29;20030;-85
2023/01/09 00:08:36;;;;;;;5.25;3.50;;;;;;;;;;4960185;29;20090;-84
2023/01/09 00:11:02;;;;;;;8.13;3.60;;;;;;;;;;4942465;29;20116;-83
2023/01/09 00:13:28;;;;;;;5.50;3.75;;;;;;;;;;4959117;29;20509;-83
2023/01/09 00:15:54;;;;;;;4.57;3.25;;;;;;;;;;4960398;29;20023;-84
2023/01/09 00:18:20;;;;;;;7.55;4.07;;;;;;;;;;4962005;29;20118;-84
2023/01/09 00:20:46;;;;;;;7.25;3.83;;;;;;;;;;4967779;29;20079;-84
2023/01/09 00:23:12;;;;;;;5.43;3.40;;;;;;;;;;4967745;29;20039;-86
2023/01/09 00:25:39;;;;;;;7.95;3.95;;;;;;;;;;4963555;29;20031;-84
2023/01/09 00:28:05;;;;;;;6.82;3.67;;;;;;;;;;4942708;29;20062;-84
2023/01/09 00:30:32;;;;;;;3.78;2.65;;;;;;;;;;4959975;29;20106;-84
2023/01/09 00:32:58;;;;;;;4.60;3.20;;;;;;;;;;4942799;29;20038;-84
2023/01/09 00:35:25;;;;;;;5.30;3.65;;;;;;;;;;4944052;29;20019;-83
2023/01/09 00:37:51;;;;;;;4.95;3.38;;;;;;;;;;4942719;29;20024;-83
2023/01/09 00:40:17;;;;;;;7.72;3.83;;;;;;;;;;4943003;29;20485;-84
2023/01/09 00:42:45;;;;;;;4.93;3.00;;;;;;;;;;4932349;29;20031;-84
2023/01/09 00:45:15;;;;;;;4.90;3.40;;;;;;;;;;4957958;29;20442;-84
2023/01/09 00:47:43;;;;;;;5.95;3.80;;;;;;;;;;4942221;29;20402;-84
2023/01/09 00:50:17;;;;;;;5.03;3.17;;;;;;;;;;4941635;29;20026;-84
2023/01/09 00:52:44;;;;;;;4.32;3.08;;;;;;;;;;4930334;29;20389;-83
2023/01/09 00:55:11;;;;;;;4.65;2.85;;;;;;;;;;4943194;29;20027;-84
2023/01/09 00:57:37;;;;;;;4.57;3.13;;;;;;;;;;4961585;29;20035;-84
2023/01/09 01:00:06;;;;;;;6.70;3.80;;;;;;;;;;4967371;29;20031;-84
2023/01/09 01:02:32;;;;;;;5.85;3.05;;;;;;;;;;4961404;29;20042;-85
2023/01/09 01:07:43;;;;;;;7.43;4.18;;;;;;;;;;4941756;29;20075;-85
2023/01/09 01:10:09;;;;;;;3.97;2.95;;;;;;;;;;4923850;29;20075;-84
2023/01/09 01:12:36;;;;;;;5.03;3.30;;;;;;;;;;4939115;29;20472;-84
2023/01/09 01:15:02;;;;;;;6.07;3.00;;;;;;;;;;4959350;29;20030;-83
2023/01/09 01:17:29;;;;;;;5.93;3.50;;;;;;;;;;4960536;29;20069;-84
2023/01/09 01:19:55;;;;;;;5.75;3.35;;;;;;;;;;4945098;29;20032;-84
2023/01/09 01:22:21;;;;;;;3.22;2.70;;;;;;;;;;4943090;28;20082;-86
2023/01/09 01:24:47;;;;;;;5.72;3.85;;;;;;;;;;4962739;29;20035;-84
2023/01/09 01:27:13;;;;;;;4.60;3.50;;;;;;;;;;4953940;29;20027;-85
2023/01/09 01:29:39;;;;;;;4.53;3.20;;;;;;;;;;4953080;29;20034;-86
2023/01/09 01:32:05;;;;;;;7.78;3.97;;;;;;;;;;4951774;29;20023;-84
2023/01/09 01:34:31;;;;;;;5.93;3.58;;;;;;;;;;4944158;29;20114;-83
2023/01/09 01:36:57;;;;;;;5.43;3.33;;;;;;;;;;4940815;29;20023;-83
2023/01/09 01:39:26;;;;;;;5.18;3.38;;;;;;;;;;4941354;29;20059;-83
2023/01/09 01:41:52;;;;;;;4.47;2.75;;;;;;;;;;4940084;29;20437;-84
2023/01/09 01:44:37;;;;;;;3.90;3.22;;;;;;;;;;4939586;29;20027;-83
2023/01/09 01:47:03;;;;;;;7.03;3.50;;;;;;;;;;4940522;29;20058;-84
2023/01/09 01:49:29;;;;;;;5.05;3.45;;;;;;;;;;4940449;29;20024;-83
2023/01/09 01:51:55;;;;;;;5.75;3.25;;;;;;;;;;4929644;29;20071;-83
2023/01/09 01:54:23;;;;;;;5.70;3.63;;;;;;;;;;4926602;29;20369;-84
2023/01/09 01:56:52;;;;;;;4.38;3.30;;;;;;;;;;4940575;29;20031;-83
2023/01/09 01:59:21;;;;;;;3.78;3.03;;;;;;;;;;4945414;29;20167;-83
2023/01/09 02:01:49;;;;;;;4.35;2.90;;;;;;;;;;4944221;29;20035;-83
2023/01/09 02:04:15;;;;;;;3.70;2.38;;;;;;;;;;4963068;29;20058;-83
2023/01/09 02:06:41;;;;;;;5.90;3.03;;;;;;;;;;4960974;29;20399;-85
2023/01/09 02:09:08;;;;;;;4.15;3.00;;;;;;;;;;4944130;29;20114;-84
2023/01/09 02:11:34;;;;;;;5.13;2.85;;;;;;;;;;4960219;29;20035;-85
2023/01/09 02:14:01;;;;;;;4.93;2.55;;;;;;;;;;4966433;29;20143;-84
2023/01/09 02:16:38;;;;;;;3.25;2.47;;;;;;;;;;4963396;29;20046;-84
2023/01/09 02:19:23;;;;;;;4.57;2.78;;;;;;;;;;4941211;29;20568;-85
2023/01/09 02:21:49;;;;;;;6.28;3.40;;;;;;;;;;4940511;29;20031;-84
2023/01/09 02:24:41;;;;;;;5.28;2.90;;;;;;;;;;4959811;29;20113;-83
2023/01/09 02:27:26;;;;;;;6.10;2.72;;;;;;;;;;4919983;29;20074;-84
2023/01/09 02:30:10;;;;;;;4.28;2.78;;;;;;;;;;4924828;29;20114;-85
2023/01/09 02:32:52;;;;;;;5.50;3.10;;;;;;;;;;4941074;29;20035;-84
2023/01/09 02:35:35;;;;;;;4.68;3.10;;;;;;;;;;4964547;28;20027;-85
2023/01/09 02:38:16;;;;;;;5.70;3.28;;;;;;;;;;4950422;29;20142;-84
2023/01/09 02:41:15;;;;;;;5.25;2.92;;;;;;;;;;4955776;29;20110;-85
2023/01/09 02:43:41;;;;;;;5.88;3.13;;;;;;;;;;4952631;29;20054;-85
2023/01/09 02:46:25;;;;;;;4.63;3.05;;;;;;;;;;4944157;29;20039;-85
2023/01/09 02:48:53;;;;;;;4.35;2.90;;;;;;;;;;4943027;29;20474;-84
2023/01/09 02:51:49;;;;;;;4.55;3.20;;;;;;;;;;4942489;29;20027;-85
2023/01/09 02:54:21;;;;;;;5.57;2.85;;;;;;;;;;4933822;29;20035;-84
2023/01/09 02:56:47;;;;;;;;;;;;;;;;;;4947590;29;20020;-85
2023/01/09 02:59:19;;;;;;;5.20;3.10;;;;;;;;;;4946572;29;20315;-84
2023/01/09 03:01:46;;;;;;;4.43;3.03;;;;;;;;;;4950951;29;20023;-85
2023/01/09 03:04:22;;;;;;;6.10;2.90;;;;;;;;;;4952928;29;20034;-85
2023/01/09 03:06:55;;;;;;;4.45;2.80;;;;;;;;;;4958840;28;20031;-84
2023/01/09 03:09:23;;;;;;;4.47;2.55;;;;;;;;;;4957020;29;20047;-85
2023/01/09 03:11:57;;;;;;;5.07;2.70;;;;;;;;;;4956445;29;20035;-85
2023/01/09 03:14:24;;;;;;;4.60;2.78;;;;;;;;;;4977964;29;20072;-83
2023/01/09 03:16:53;;;;;;;3.13;2.35;;;;;;;;;;4962911;28;20046;-87
2023/01/09 03:19:22;;;;;;;6.70;2.90;;;;;;;;;;4964086;28;20116;-86
2023/01/09 03:21:48;;;;;;;5.30;2.75;;;;;;;;;;4964888;28;20015;-83
2023/01/09 03:24:14;;;;;;;5.15;2.95;;;;;;;;;;4981814;28;20026;-87
2023/01/09 03:26:41;;;;;;;5.03;2.78;;;;;;;;;;4965208;28;20008;-86
2023/01/09 03:29:07;;;;;;;4.78;2.70;;;;;;;;;;4979121;28;20058;-85
2023/01/09 03:31:33;;;;;;;3.05;2.30;;;;;;;;;;4974312;29;20078;-84
2023/01/09 03:33:59;;;;;;;4.65;2.67;;;;;;;;;;4971866;29;20032;-86
2023/01/09 03:36:25;;;;;;;6.07;2.50;;;;;;;;;;4971923;29;20027;-85
2023/01/09 03:38:51;;;;;;;3.88;2.67;;;;;;;;;;4972731;29;20045;-84
2023/01/09 03:41:18;;;;;;;5.40;3.20;;;;;;;;;;4954713;29;20118;-84
2023/01/09 03:43:44;;;;;;;3.65;2.70;;;;;;;;;;4954633;29;20031;-83
2023/01/09 03:46:11;;;;;;;4.88;2.63;;;;;;;;;;4958839;29;20017;-84
2023/01/09 03:48:37;;;;;;;3.50;2.35;;;;;;;;;;4963256;28;20043;-85
2023/01/09 03:51:03;;;;;;;4.03;2.40;;;;;;;;;;4958445;29;20485;-85
2023/01/09 03:53:29;;;;;;;4.40;2.35;;;;;;;;;;4972335;29;20058;-85
2023/01/09 03:55:56;;;;;;;3.28;2.28;;;;;;;;;;4958900;29;20035;-86
2023/01/09 03:58:26;;;;;;;4.13;2.63;;;;;;;;;;4962657;28;20027;-85
2023/01/09 04:00:56;;;;;;;4.15;2.70;;;;;;;;;;4961103;29;20019;-84
2023/01/09 04:03:22;;;;;;;3.45;2.38;;;;;;;;;;4968066;29;20031;-84
2023/01/09 04:05:49;;;;;;;4.53;2.78;;;;;;;;;;4951323;29;20023;-84
2023/01/09 04:08:15;;;;;;;5.75;2.95;;;;;;;;;;4954259;29;20035;-84
2023/01/09 04:10:44;;;;;;;3.65;2.45;;;;;;;;;;4946634;29;20078;-83
2023/01/09 04:13:10;;;;;;;7.20;3.10;;;;;;;;;;4959452;29;20374;-83
2023/01/09 04:15:36;;;;;;;4.57;2.58;;;;;;;;;;4969796;28;20019;-85
2023/01/09 04:18:03;;;;;;;5.43;2.63;;;;;;;;;;4975527;29;20027;-85
2023/01/09 04:20:29;;;;;;;3.90;2.60;;;;;;;;;;4951546;29;20039;-85
2023/01/09 04:22:55;;;;;;;4.38;2.63;;;;;;;;;;4943795;29;20462;-86
2023/01/09 04:25:24;;;;;;;2.20;2.00;;;;;;;;;;4942861;29;20469;-84
2023/01/09 04:27:50;;;;;;;3.30;2.30;;;;;;;;;;4958522;29;20106;-84
2023/01/09 04:30:16;;;;;;;4.75;2.40;;;;;;;;;;4958316;29;20031;-84
2023/01/09 04:32:45;;;;;;;2.88;2.33;;;;;;;;;;4940591;29;20028;-85
2023/01/09 04:35:11;;;;;;;2.75;2.15;;;;;;;;;;4958531;29;20054;-85
2023/01/09 04:37:40;;;;;;;3.67;2.00;;;;;;;;;;4957210;29;20035;-84
2023/01/09 04:40:10;;;;;;;4.65;2.03;;;;;;;;;;4957115;29;20098;-83
2023/01/09 04:42:37;;;;;;;3.15;1.92;;;;;;;;;;4955422;29;20401;-83
2023/01/09 04:45:03;;;;;;;1.60;1.50;;;;;;;;;;4956236;29;20039;-83
2023/01/09 04:47:32;;;;;;;2.88;1.50;;;;;;;;;;4957959;29;20023;-83
2023/01/09 04:49:58;;;;;;;1.92;1.38;;;;;;;;;;4957368;29;20030;-85
2023/01/09 04:52:27;;;;;;;5.38;1.10;;;;;;;;;;4956779;29;20030;-84
2023/01/09 04:54:53;;;;;;;1.20;1.10;;;;;;;;;;4957465;29;20509;-84
2023/01/09 04:57:20;;;;;;;2.10;0.93;;;;;;;;;;4941181;29;20046;-84
2023/01/09 04:59:46;;;;;;;0.85;0.75;;;;;;;;;;4941669;29;20031;-84
2023/01/09 05:02:12;;;;;;;0.88;0.88;;;;;;;;;;4928248;29;20031;-83
2023/01/09 05:04:38;;;;;;;0.47;0.47;;;;;;;;;;4928326;29;20122;-85
2023/01/09 05:07:04;;;;;;;0.95;0.40;;;;;;;;;;4927264;29;20024;-84
2023/01/09 05:09:30;;;;;;;0.68;0.50;;;;;;;;;;4943830;29;20031;-83
2023/01/09 05:11:56;;;;;;;0.20;0.20;;;;;;;;;;4949370;29;20054;-83
2023/01/09 05:14:22;;;;;;;0.77;0.60;;;;;;;;;;4951513;28;20051;-88
2023/01/09 05:16:48;;;;;;;0.38;0.35;;;;;;;;;;4977150;28;20058;-86
2023/01/09 05:19:14;;;;;;;0.60;0.40;;;;;;;;;;4957603;29;20527;-85
2023/01/09 05:21:43;;;;;;;0.20;0.20;;;;;;;;;;4957564;29;20093;-84
2023/01/09 05:24:09;;;;;;;0.30;0.20;;;;;;;;;;4958610;29;20126;-84
2023/01/09 05:26:36;;;;;;;0.88;0.30;;;;;;;;;;4955583;29;20032;-82
2023/01/09 05:29:02;;;;;;;2.38;0.17;;;;;;;;;;4943880;29;20037;-84
2023/01/09 05:31:28;;;;;;;0.20;0.20;;;;;;;;;;4962068;29;20050;-85
2023/01/09 05:33:59;;;;;;;0.10;0.10;;;;;;;;;;4940533;29;20053;-85
2023/01/09 05:36:25;;;;;;;0.25;0.20;;;;;;;;;;4949767;29;20023;-86
2023/01/09 05:38:51;;;;;;;0.90;0.10;;;;;;;;;;4941476;29;20039;-86
2023/01/09 05:41:20;;;;;;;0.38;0.20;;;;;;;;;;4939873;29;20028;-86
2023/01/09 05:43:46;;;;;;;1.98;0.20;;;;;;;;;;4956187;29;20038;-85
2023/01/09 05:46:12;;;;;;;0.17;0.10;;;;;;;;;;4939635;29;20027;-86
2023/01/09 05:48:39;;;;;;;0.15;0.15;;;;;;;;;;4957444;29;20019;-87
2023/01/09 05:51:08;;;;;;;0.15;0.10;;;;;;;;;;4938599;29;20043;-87
2023/01/09 05:53:37;;;;;;;0.50;0.28;;;;;;;;;;4958478;29;20060;-90
2023/01/09 05:56:03;;;;;;;1.67;0.25;;;;;;;;;;4960667;29;20023;-86
2023/01/09 05:58:29;;;;;;;0.30;0.20;;;;;;;;;;4954274;29;20522;-87
2023/01/09 06:00:55;;;;;;;0.40;0.20;;;;;;;;;;4964314;29;20043;-87
2023/01/09 06:04:00;;;;;;;0.93;0.20;;;;;;;;;;4949979;29;20066;-86
2023/01/09 06:40:19;;;;;;;0.30;0.15;;;;;;;;;;4672267;23;20047;-89
2023/01/09 06:42:55;;;;;;;1.77;0.20;;;;;;;;;;4967570;28;20392;-88
2023/01/09 06:45:27;;;;;;;1.63;0.20;;;;;;;;;;4951678;28;20559;-87
2023/01/09 06:48:25;;;;;;;1.83;0.40;;;;;;;;;;4966654;28;20118;-87
2023/01/09 06:54:01;;;;;;;0.10;0.10;;;;;;;;;;5000574;28;20026;-87
2023/01/09 06:56:34;;;;;;;0.30;0.10;;;;;;;;;;4983292;28;20023;-89
2023/01/09 06:59:01;;;;;;;0.57;0.20;;;;;;;;;;4983965;28;20030;-88
2023/01/09 07:01:27;;;;;;;0.10;0.10;;;;;;;;;;4982138;28;20038;-89
2023/01/09 07:03:53;;;;;;;0.20;0.10;;;;;;;;;;4981584;28;20041;-88
2023/01/09 07:06:22;;;;;;;1.05;0.17;;;;;;;;;;4971015;28;20085;-87
2023/01/09 07:08:51;;;;;;;1.08;0.10;;;;;;;;;;4969899;28;20027;-87
2023/01/09 07:11:20;;;;;;;0.15;0.15;;;;;;;;;;4978386;28;20027;-88
2023/01/09 07:13:47;;;;;;;1.20;0.30;;;;;;;;;;4980967;28;20037;-91
2023/01/09 07:16:22;;;;;;;0.40;0.35;;;;;;;;;;4984154;28;20046;-87
2023/01/09 07:18:49;;;;;;;0.15;0.10;;;;;;;;;;4971253;28;20041;-87
2023/01/09 07:21:28;;;;;;;;;;;;;;;;;;;;;
2023/01/09 07:29:50;;;;;;;0.10;0.10;;;;;;;;;;4998470;28;20043;-86
2023/01/09 07:32:46;;;;;;;2.50;0.10;;;;;;;;;;4983082;28;20022;-86
2023/01/09 07:35:22;;;;;;;1.75;0.10;;;;;;;;;;4917726;28;20066;-86
2023/01/09 07:38:22;;;;;;;0.28;0.10;;;;;;;;;;4974961;28;20027;-86
2023/01/09 07:41:06;;;;;;;0.85;0.13;;;;;;;;;;4979594;28;20028;-87
2023/01/09 07:43:32;;;;;;;0.22;0.08;;;;;;;;;;4963869;29;20097;-86
2023/01/09 07:46:22;;;;;;;1.02;0.20;;;;;;;;;;4963086;28;20019;-86
2023/01/09 07:48:50;;;;;;;0.68;0.13;;;;;;;;;;4978772;28;20035;-85
2023/01/09 07:51:23;;;;;;;0.25;0.13;;;;;;;;;;4962936;28;20043;-84
2023/01/09 07:53:49;;;;;;;0.35;0.20;;;;;;;;;;4945190;29;20111;-87
2023/01/09 07:56:15;;;;;;;0.65;0.30;;;;;;;;;;4989133;28;20039;-87
2023/01/09 07:58:41;;;;;;;0.15;0.10;;;;;;;;;;4969403;29;20029;-85
2023/01/09 08:01:07;;;;;;;0.28;0.15;;;;;;;;;;4977393;28;20054;-86
2023/01/09 08:03:33;;;;;;;0.50;0.10;;;;;;;;;;4992071;28;20050;-85
2023/01/09 08:06:00;;;;;;;0.13;0.13;;;;;;;;;;4954340;29;20027;-85
2023/01/09 08:08:26;;;;;;;0.75;0.30;;;;;;;;;;4967977;29;20038;-87
2023/01/09 08:10:52;;;;;;;0.20;0.15;;;;;;;;;;4969384;28;20704;-85
2023/01/09 08:13:18;;;;;;;0.80;0.80;;;;;;;;;;4971988;29;20028;-84
2023/01/09 08:15:44;;;;;;;0.25;0.10;;;;;;;;;;4982094;28;20248;-84
2023/01/09 08:18:10;;;;;;;0.85;0.50;;;;;;;;;;4966024;29;20094;-85
2023/01/09 08:20:38;;;;;;;0.65;0.32;;;;;;;;;;4953027;29;20047;-88
2023/01/09 08:23:04;;;;;;;0.50;0.15;;;;;;;;;;4947198;29;20023;-86
2023/01/09 08:25:32;;;;;;;0.22;0.13;;;;;;;;;;4949894;29;20031;-87
2023/01/09 08:27:58;;;;;;;0.55;0.10;;;;;;;;;;4949255;29;20062;-85
2023/01/09 08:30:24;;;;;;;2.20;0.20;;;;;;;;;;4950510;29;20484;-86
2023/01/09 08:32:51;;;;;;;1.58;0.20;;;;;;;;;;4946230;29;20043;-85
2023/01/09 08:35:18;;;;;;;0.40;0.38;;;;;;;;;;4964354;29;20031;-86
2023/01/09 08:37:45;;;;;;;1.15;0.28;;;;;;;;;;4964960;29;20083;-85
2023/01/09 08:40:12;;;;;;;0.95;0.20;;;;;;;;;;4932549;29;20042;-84
2023/01/09 08:48:08;;;;;;;1.88;0.52;;;;;;;;;;4965902;29;20042;-85
2023/01/09 08:50:34;;;;;;;2.83;0.32;;;;;;;;;;4980055;28;20027;-85
2023/01/09 08:53:00;;;;;;;1.35;0.40;;;;;;;;;;4965161;29;20023;-86
2023/01/09 08:55:26;;;;;;;0.82;0.20;;;;;;;;;;4968666;28;20015;-86
2023/01/09 08:57:53;;;;;;;0.47;0.30;;;;;;;;;;4964195;29;20103;-86
2023/01/09 09:00:20;;;;;;;1.05;0.35;;;;;;;;;;4964422;29;20102;-86
2023/01/09 09:02:50;;;;;;;0.40;0.20;;;;;;;;;;4972903;28;20130;-85
2023/01/09 09:05:16;;;;;;;0.55;0.20;;;;;;;;;;4959249;29;20032;-86
2023/01/09 09:07:42;;;;;;;2.42;0.40;;;;;;;;;;4959520;29;20031;-84
2023/01/09 09:10:09;;;;;;;1.02;0.32;;;;;;;;;;4951926;28;20457;-86
2023/01/09 09:12:35;;;;;;;0.98;0.20;;;;;;;;;;4949202;29;20086;-84
2023/01/09 09:17:48;;;;;;;0.85;0.22;;;;;;;;;;4973551;28;20099;-84
2023/01/09 09:20:14;;;;;;;0.47;0.20;;;;;;;;;;4960302;29;20023;-83
2023/01/09 09:22:40;;;;;;;2.15;0.50;;;;;;;;;;4959134;28;20058;-84
2023/01/09 09:25:07;;;;;;;1.58;0.30;;;;;;;;;;4960255;29;20023;-82
2023/01/09 09:27:35;;;;;;;1.20;0.32;;;;;;;;;;4958015;29;20056;-82
2023/01/09 09:30:01;;;;;;;2.85;0.50;;;;;;;;;;4958976;29;20078;-83
2023/01/09 09:32:27;;;;;;;2.20;0.52;;;;;;;;;;4947944;28;20058;-83
2023/01/09 09:34:53;;;;;;;2.25;0.65;;;;;;;;;;4961144;29;20030;-83
2023/01/09 09:37:19;;;;;;;3.83;0.57;;;;;;;;;;4962244;29;20031;-84
2023/01/09 09:39:45;;;;;;;0.50;0.40;;;;;;;;;;4946783;29;20035;-83
2023/01/09 09:45:24;;;;;;;2.35;0.57;;;;;;;;;;4965632;28;20058;-84
2023/01/09 09:47:50;;;;;;;1.58;0.40;;;;;;;;;;4965955;29;20015;-83
2023/01/09 09:50:55;;;;;;;1.48;0.43;;;;;;;;;;4957351;29;20031;-84
2023/01/09 09:53:26;;;;;;;1.90;0.90;;;;;;;;;;4908291;29;20500;-83
2023/01/09 09:55:52;;;;;;;1.92;0.70;;;;;;;;;;4930530;29;20040;-83
2023/01/09 09:58:36;;;;;;;1.30;0.50;;;;;;;;;;4924780;29;20117;-84
2023/01/09 10:01:03;;;;;;;1.88;0.47;;;;;;;;;;4967167;28;20027;-83
2023/01/09 10:03:44;;;;;;;3.22;0.60;;;;;;;;;;4968831;29;20047;-83
2023/01/09 10:06:15;;;;;;;0.57;0.32;;;;;;;;;;4950949;29;20062;-84
2023/01/09 10:09:00;;;;;;;2.47;0.30;;;;;;;;;;4969845;29;20027;-85
2023/01/09 10:11:30;;;;;;;3.13;0.50;;;;;;;;;;4971512;28;20418;-83
2023/01/09 10:14:05;;;;;;;1.98;0.52;;;;;;;;;;4972082;29;20110;-84
2023/01/09 10:16:31;;;;;;;3.70;0.38;;;;;;;;;;4973291;29;20081;-84
2023/01/09 10:19:07;;;;;;;2.30;0.50;;;;;;;;;;4969210;29;20118;-84
2023/01/09 10:21:33;;;;;;;0.70;0.38;;;;;;;;;;4968723;28;20027;-84
2023/01/09 10:24:21;;;;;;;1.30;0.47;;;;;;;;;;4950141;29;20038;-83
2023/01/09 10:26:50;;;;;;;2.20;0.40;;;;;;;;;;4950927;29;20066;-83
2023/01/09 10:29:25;;;;;;;5.00;0.57;;;;;;;;;;4967136;29;20031;-83
2023/01/09 10:32:02;;;;;;;1.70;0.40;;;;;;;;;;4958108;29;20050;-84
2023/01/09 10:34:42;;;;;;;1.33;0.50;;;;;;;;;;4968326;29;20113;-82
2023/01/09 10:37:27;;;;;;;2.63;1.00;;;;;;;;;;4967989;29;20023;-83
2023/01/09 10:40:06;;;;;;;2.45;0.50;;;;;;;;;;4966335;28;20027;-84
2023/01/09 10:42:43;;;;;;;1.75;0.68;;;;;;;;;;4966309;28;20111;-82
2023/01/09 10:45:24;;;;;;;2.25;0.52;;;;;;;;;;4967770;29;20059;-82
2023/01/09 10:47:50;;;;;;;2.45;0.68;;;;;;;;;;4966700;29;20034;-83
2023/01/09 10:53:37;;;;;;;2.35;0.68;;;;;;;;;;4950136;29;20043;-83
2023/01/09 10:56:36;;;;;;;2.92;0.50;;;;;;;;;;4951057;29;20075;-82
2023/01/09 10:59:02;;;;;;;5.47;0.80;;;;;;;;;;4952986;29;20095;-83
2023/01/09 11:01:30;;;;;;;2.95;0.70;;;;;;;;;;4971067;28;20027;-83
2023/01/09 11:04:01;;;;;;;2.03;0.60;;;;;;;;;;4972761;29;20046;-83
2023/01/09 11:06:42;;;;;;;2.53;0.70;;;;;;;;;;4970428;29;20067;-83
2023/01/09 11:09:08;;;;;;;0.68;0.50;;;;;;;;;;4966958;29;20035;-83
2023/01/09 11:11:36;;;;;;;5.07;0.50;;;;;;;;;;4965970;28;20031;-83
2023/01/09 11:14:08;;;;;;;3.17;0.88;;;;;;;;;;4967200;29;20015;-84
2023/01/09 11:16:34;;;;;;;4.40;1.70;;;;;;;;;;4980470;28;20023;-83
2023/01/09 11:19:01;;;;;;;3.83;0.68;;;;;;;;;;4975257;28;20106;-84
2023/01/09 11:21:36;;;;;;;3.47;0.85;;;;;;;;;;4947103;29;20086;-82
2023/01/09 11:24:18;;;;;;;3.92;3.03;;;;;;;;;;4967386;29;20035;-83
2023/01/09 11:26:48;;;;;;;2.10;0.98;;;;;;;;;;4965942;29;20087;-83
2023/01/09 11:29:15;;;;;;;2.15;1.25;;;;;;;;;;4965922;29;20039;-83
2023/01/09 11:31:43;;;;;;;1.92;0.57;;;;;;;;;;4963940;28;20023;-83
2023/01/09 11:34:18;;;;;;;3.47;0.77;;;;;;;;;;4964123;29;20031;-83
2023/01/09 11:36:44;;;;;;;5.00;1.05;;;;;;;;;;4946754;29;20376;-84
2023/01/09 11:39:24;;;;;;;1.75;0.47;;;;;;;;;;4946170;29;20390;-84
2023/01/09 11:42:07;;;;;;;1.45;0.70;;;;;;;;;;4963016;28;20062;-83
2023/01/09 11:44:34;;;;;;;6.93;1.23;;;;;;;;;;4948186;29;20031;-83
2023/01/09 11:47:00;;;;;;;1.90;0.50;;;;;;;;;;4976976;29;20051;-83
2023/01/09 11:49:29;;;;;;;2.72;1.52;;;;;;;;;;4978002;28;20028;-82
2023/01/09 11:57:11;;;;;;;1.92;0.90;;;;;;;;;;1049094;26;20475;-82
2023/01/09 11:59:38;;;;;;;3.10;1.10;;;;;;;;;;5013248;28;20101;-81
2023/01/09 12:02:25;;;;;;;3.42;0.80;;;;;;;;;;5013379;28;20034;-84
2023/01/09 12:04:57;;;;;;;1.60;0.70;;;;;;;;;;5017706;28;20022;-83
2023/01/09 12:07:23;;;;;;;3.38;0.77;;;;;;;;;;4999555;28;20037;-84
2023/01/09 12:09:55;;;;;;;2.15;1.52;;;;;;;;;;4993672;28;20039;-82
2023/01/09 12:12:27;;;;;;;4.07;0.98;;;;;;;;;;5011530;28;20026;-84
2023/01/09 12:15:00;;;;;;;1.02;0.50;;;;;;;;;;5031440;28;20089;-84
2023/01/09 12:17:29;;;;;;;2.10;0.70;;;;;;;;;;5016107;28;20037;-83
2023/01/09 12:20:17;;;;;;;5.28;0.82;;;;;;;;;;5036715;28;20029;-84
2023/01/09 12:22:43;;;;;;;2.47;1.13;;;;;;;;;;5036130;28;20017;-85
2023/01/09 12:25:09;;;;;;;3.10;0.70;;;;;;;;;;5037422;28;20064;-84
2023/01/09 12:27:54;;;;;;;2.55;1.10;;;;;;;;;;5042523;28;20030;-86
2023/01/09 12:30:44;;;;;;;1.58;0.50;;;;;;;;;;5022579;28;20026;-84
2023/01/09 12:33:10;;;;;;;3.83;0.63;;;;;;;;;;5000925;28;20014;-84
2023/01/09 12:35:41;;;;;;;6.15;0.90;;;;;;;;;;4984592;28;20086;-84
2023/01/09 12:38:20;;;;;;;3.67;0.80;;;;;;;;;;4985134;28;20046;-84
2023/01/09 12:40:55;;;;;;;0.95;0.70;;;;;;;;;;4989216;28;20030;-84
2023/01/09 12:43:25;;;;;;;2.17;0.95;;;;;;;;;;5029742;28;20040;-84
2023/01/09 12:45:54;;;;;;;5.18;0.73;;;;;;;;;;5032462;28;20275;-86
2023/01/09 12:48:26;;;;;;;1.00;0.38;;;;;;;;;;5042930;28;20037;-84
2023/01/09 12:51:04;;;;;;;2.78;0.75;;;;;;;;;;5004316;28;20034;-86
2023/01/09 12:53:36;;;;;;;2.10;0.45;;;;;;;;;;5008824;28;20026;-86
2023/01/09 12:56:02;;;;;;;;;;;;;;;;;;5005354;28;20018;-85
2023/01/09 12:58:32;;;;;;;2.55;0.65;;;;;;;;;;5001522;28;19914;-85
2023/01/09 13:00:59;;;;;;;5.63;0.70;;;;;;;;;;4994975;28;20072;-86
2023/01/09 13:03:32;;;;;;;3.58;0.95;;;;;;;;;;5011577;28;20030;-86
2023/01/09 13:05:58;;;;;;;2.25;0.70;;;;;;;;;;5013056;28;20045;-87
2023/01/09 13:08:35;;;;;;;3.15;0.80;;;;;;;;;;4998784;28;20046;-86
2023/01/09 13:11:14;;;;;;;0.70;0.63;;;;;;;;;;4991723;28;20125;-86
2023/01/09 13:13:53;;;;;;;3.58;1.23;;;;;;;;;;5000367;28;20057;-86
2023/01/09 13:16:29;;;;;;;3.78;0.60;;;;;;;;;;5000953;28;20017;-87
2023/01/09 13:18:58;;;;;;;3.83;0.60;;;;;;;;;;5020264;28;20022;-86
2023/01/09 13:21:25;;;;;;;6.35;1.02;;;;;;;;;;5009885;28;20175;-86
2023/01/09 13:24:01;;;;;;;5.88;0.70;;;;;;;;;;5011199;28;20026;-86
2023/01/09 13:26:29;;;;;;;1.73;0.73;;;;;;;;;;5026016;28;20471;-87
2023/01/09 13:29:08;;;;;;;1.92;0.50;;;;;;;;;;5017250;28;20038;-87
2023/01/09 13:31:44;;;;;;;2.35;0.70;;;;;;;;;;5014258;28;20037;-86
2023/01/09 13:34:37;;;;;;;3.42;0.70;;;;;;;;;;5014595;28;20089;-87
2023/01/09 13:37:03;;;;;;;2.25;1.17;;;;;;;;;;5003224;28;20030;-87
2023/01/09 13:39:31;;;;;;;2.35;0.60;;;;;;;;;;4993027;28;20074;-86
2023/01/09 13:45:10;;;;;;;2.20;0.60;;;;;;;;;;5007439;28;20037;-86
2023/01/09 13:47:55;;;;;;;2.22;0.40;;;;;;;;;;5004968;28;20034;-85
2023/01/09 13:53:28;;;;;;;4.03;0.68;;;;;;;;;;5083765;23;20117;-84
2023/01/09 13:55:57;;;;;;;5.07;1.70;;;;;;;;;;4889473;29;20065;-84
2023/01/09 13:58:27;;;;;;;2.08;0.52;;;;;;;;;;4974772;28;20026;-85
2023/01/09 14:01:23;;;;;;;1.95;0.77;;;;;;;;;;4970318;28;20121;-84
2023/01/09 14:04:10;;;;;;;2.92;0.75;;;;;;;;;;4956314;28;20102;-85
2023/01/09 14:06:36;;;;;;;4.22;0.90;;;;;;;;;;4943259;28;20038;-84
2023/01/09 14:09:09;;;;;;;5.18;1.23;;;;;;;;;;4968946;28;20031;-84
2023/01/09 14:11:39;;;;;;;1.15;0.57;;;;;;;;;;4968268;28;20037;-84
2023/01/09 14:14:07;;;;;;;2.28;1.13;;;;;;;;;;4968136;28;20147;-85
2023/01/09 14:16:35;;;;;;;2.45;0.57;;;;;;;;;;4984435;28;20389;-85
2023/01/09 14:19:03;;;;;;;2.42;0.60;;;;;;;;;;4984409;28;20031;-86
2023/01/09 14:21:44;;;;;;;4.13;0.80;;;;;;;;;;4982925;28;20031;-85
2023/01/09 14:24:12;;;;;;;2.60;0.75;;;;;;;;;;4967547;28;20027;-84
2023/01/09 14:26:53;;;;;;;1.55;0.55;;;;;;;;;;4980262;28;20050;-86
2023/01/09 14:29:32;;;;;;;2.60;0.43;;;;;;;;;;4967629;28;20030;-85
2023/01/09 14:32:20;;;;;;;1.98;0.50;;;;;;;;;;4989970;28;20054;-85
2023/01/09 14:34:49;;;;;;;1.95;0.70;;;;;;;;;;4973015;28;20022;-85
2023/01/09 14:37:15;;;;;;;5.22;1.63;;;;;;;;;;4972163;28;20113;-85
2023/01/09 14:39:43;;;;;;;4.00;0.70;;;;;;;;;;4972531;28;20027;-84
2023/01/09 14:42:14;;;;;;;1.38;0.50;;;;;;;;;;4971694;28;20027;-82
2023/01/09 14:45:07;;;;;;;1.30;0.55;;;;;;;;;;4989632;28;20039;-84
2023/01/09 14:47:48;;;;;;;1.70;0.60;;;;;;;;;;4973420;28;20418;-85
2023/01/09 14:53:50;;;;;;;2.65;0.38;;;;;;;;;;4972062;28;20118;-82
2023/01/09 14:56:48;;;;;;;2.63;0.47;;;;;;;;;;4904468;29;20059;-84
2023/01/09 15:02:19;;;;;;;1.45;0.70;;;;;;;;;;4917463;29;20036;-83
2023/01/09 15:04:45;;;;;;;2.45;0.60;;;;;;;;;;4914656;29;20028;-83
2023/01/09 15:07:24;;;;;;;6.32;0.90;;;;;;;;;;4938766;28;20035;-82
2023/01/09 15:09:50;;;;;;;1.75;0.68;;;;;;;;;;4975533;28;20067;-84
2023/01/09 15:12:19;;;;;;;2.13;0.88;;;;;;;;;;4976798;28;20023;-82
2023/01/09 15:14:45;;;;;;;2.67;1.00;;;;;;;;;;4998519;28;20061;-82
2023/01/09 15:17:24;;;;;;;4.45;2.40;;;;;;;;;;4996368;28;20042;-83
2023/01/09 15:19:56;;;;;;;2.78;1.63;;;;;;;;;;4999811;28;20015;-81
2023/01/09 15:22:33;;;;;;;4.15;1.30;;;;;;;;;;4994135;28;20078;-83
2023/01/09 15:25:11;;;;;;;16.23;14.55;;;;;;;;;;4992278;28;20105;-83
2023/01/09 15:27:48;;;;;;;5.63;2.50;;;;;;;;;;4979476;28;20031;-84
2023/01/09 15:30:16;;;;;;;3.95;2.15;;;;;;;;;;4996305;28;20022;-83
2023/01/09 15:32:43;;;;;;;5.68;2.85;;;;;;;;;;4993948;28;20027;-83
2023/01/09 15:35:13;;;;;;;1.67;1.58;;;;;;;;;;4973566;28;20027;-84
2023/01/09 15:37:39;;;;;;;3.58;1.10;;;;;;;;;;4974797;28;20023;-81
2023/01/09 15:40:07;;;;;;;2.88;1.10;;;;;;;;;;4998542;28;20023;-82
2023/01/09 15:45:31;;;;;;;1.50;0.82;;;;;;;;;;4990605;28;20034;-84
2023/01/09 15:48:16;;;;;;;2.33;0.68;;;;;;;;;;4990613;28;20091;-84
2023/01/09 15:50:43;;;;;;;1.17;0.75;;;;;;;;;;4997448;28;20029;-82
2023/01/09 15:53:27;;;;;;;3.90;1.35;;;;;;;;;;4964317;28;20039;-83
2023/01/09 15:56:04;;;;;;;1.77;0.80;;;;;;;;;;4987156;28;20035;-84
2023/01/09 15:58:37;;;;;;;1.90;0.90;;;;;;;;;;4975426;28;20078;-83
2023/01/09 16:01:14;;;;;;;1.30;0.43;;;;;;;;;;4978981;28;20030;-84
2023/01/09 16:03:40;;;;;;;2.25;0.20;;;;;;;;;;5005523;23;20109;-80
2023/01/09 16:06:08;;;;;;;0.73;0.40;;;;;;;;;;4983265;28;20035;-80
2023/01/09 16:08:36;;;;;;;0.73;0.40;;;;;;;;;;4981645;28;20034;-81
2023/01/09 16:11:04;;;;;;;0.88;0.50;;;;;;;;;;4985470;28;20022;-81
2023/01/09 16:13:31;;;;;;;2.47;1.00;;;;;;;;;;4960395;29;20046;-81
2023/01/09 16:15:59;;;;;;;1.05;0.40;;;;;;;;;;4959555;29;20024;-81
2023/01/09 16:18:29;;;;;;;2.63;0.90;;;;;;;;;;4966660;29;20377;-81
2023/01/09 16:21:14;;;;;;;1.05;0.65;;;;;;;;;;4968011;29;20375;-80
2023/01/09 16:23:50;;;;;;;5.97;2.50;;;;;;;;;;4969701;29;20101;-80
2023/01/09 16:26:20;;;;;;;2.85;1.40;;;;;;;;;;4969529;29;20232;-82
2023/01/09 16:28:46;;;;;;;4.85;2.80;;;;;;;;;;4975960;28;20066;-81